ボードー の空港の天気 - METARとTAF

Bodo Vi ( ENBO / BOO ) - ノルウェー ヌールラン県ボードー
飛行場実況気象(Metar)
観測時間06/24 11:50 CEST (06/24 09:50 UTC)
風向・風速南西 8m/s
視程10km以上
天気現象周辺でしゅう雨
少しの雲 雲底高度 370m
全天の4割程度の雲 雲底高度 610m
全天の8割程度の雲 雲底高度 910m
気温9℃
湿度87%
気圧1027hPa
METARENBO 240950Z 23016KT 9999 VCSH FEW012 SCT020 BKN030 09/07 Q1027 TEMPO SHRA SCT008 BKN014TCU
過去の天気等 Google飛行場航空写真 Wunderground天気予報

過去48時間のMETAR

飛行場予報(TAF)
発表時間: -
24日8時 CEST ~ 25日8時 CEST に一時的に
天気現象しゅう雨
全天の8割程度の塔状積雲 雲底高度 430m
TAF ENBO 2406/2506 24014KT 9999 -SHRA FEW012 BKN040
TEMPO 2406/2506 SHRA BKN014TCU